Tiempo atmosférico en la estación meteorológica de Berga, Barcelona (690 m.)



Fecha
DESCASC
Temp. máxima en grados centígrados (hora)
DESCASC
Temp. mínima en grados centígrados (hora)
DESCASC
Temp. media en grados centígrados
DESCASC
Racha de viento máxima en m/sg (hora)
DESCASC
Velocidad máxima media en intervalos de 10 minutos(hora)
DESCASC
Precipitaciones diarias en mm
DESCASC
Precipitaciones de 00:00 a 06:00 en mm
DESCASC
Precipitaciones de 06:00 a 12:00 en mm
DESCASC
Precipitaciones de 12:00 a 18:00 en mm
DESCASC
Precipitaciones de 18:00 a 24:00 en mm
DESCASC
16-01-2020 12.6 (16:50) -0.7 (08:20) 6 5.56 (17:10) 3.61 (17:10) 0 0 0 0 0
15-01-2020 8 (16:30) -1.8 (08:10) 3.1 5.28 (21:10) 3.33 (21:20) 0 0 0 0 0
14-01-2020 10.3 (16:50) -1.7 (08:40) 4.3 4.44 (06:30) 2.5 (23:30) 0 0 0 0 0
13-01-2020 8.2 (15:30) -1.2 (07:20) 3.5 4.72 (02:40) 3.06 (02:10) 0 0 0 0 0
12-01-2020 10.5 (15:50) -1.6 (-00:0) 4.4 4.17 (14:10) 2.78 (15:00) 0 0 0 0 0
11-01-2020 5.7 (16:20) -0.6 (-00:0) 2.5 3.61 (22:50) 2.22 (23:00) 0 0 0 0 0
10-01-2020 10.4 (15:50) 3 (00:00) 6.7 7.5 (12:20) 4.72 (12:20) 2 0.2 1.8 0 0
09-01-2020 12.1 (15:50) 1.5 (00:00) 6.8 4.72 (17:20) 2.5 (02:10) 0 0 0 0 0
08-01-2020 13.9 (15:50) 2.5 (00:00) 8.2 5.56 (04:40) 3.61 (04:40) 0 0 0 0 0
07-01-2020 12.1 (16:30) 0.3 (00:00) 6.2 4.72 (09:50) 2.78 (09:50) 0 0 0 0 0
06-01-2020 11.2 (15:30) 1.1 (00:00) 6.1 5.28 (06:30) 3.06 (07:40) 0 0 0 0 0
05-01-2020 12.4 (15:50) -1.4 (-00:0) 5.5 4.17 (23:30) 2.78 (23:00) 0 0 0 0 0
04-01-2020 10.7 (15:20) -0.1 (00:00) 5.3 5 (05:00) 3.33 (05:00) 0 0 0 0 0
03-01-2020 7.5 (15:10) 0 (00:00) 3.8 3.61 (22:50) 2.5 (22:40) 0 0 0 0 0
02-01-2020 8.8 (15:50) -0.7 (-00:0) 4.1 4.17 (13:50) 2.5 (13:20) 0 0 0 0 0
01-01-2020 9.8 (14:30) -2.6 (-00:0) 3.6 3.33 (14:00) 2.22 (14:00) 0 0 0 0 0
31-12-2019 6 (14:10) 0.3 (00:00) 3.2 4.44 (04:40) 2.5 (04:40) 0 0 0 0 0
30-12-2019 10.3 (15:50) 1.2 (00:00) 5.8 3.89 (09:00) 2.5 (09:00) 0 0 0 0 0
29-12-2019 5.6 (16:50) 1.6 (00:00) 3.6 3.61 (03:50) 2.22 (01:20) 0 0 0 0 0
28-12-2019 13.3 (15:10) 3 (00:00) 8.2 4.44 (08:10) 3.06 (06:20) 0 0 0 0 0
27-12-2019 9.2 (15:30) 0 (00:00) 4.6 4.17 (20:20) 2.78 (21:10) 0 0 0 0 0
26-12-2019 14.3 (15:30) 4.1 (00:00) 9.2 5.83 (07:00) 3.33 (09:30) 0 0 0 0 0
25-12-2019 15.1 (15:50) 4.4 (00:00) 9.8 4.72 (05:40) 2.78 (23:00) 0 0 0 0 0
24-12-2019 12.6 (16:30) 1.8 (00:00) 7.2 4.17 (18:50) 2.78 (18:50) 0 0 0 0 0
23-12-2019 11 (15:50) 0.9 (00:00) 5.9 5.28 (01:20) 2.78 (02:20) 0 0 0 0 0
22-12-2019 12.7 (13:40) 5.1 (00:00) 8.9 14.72 (02:20) 8.89 (03:30) 0 0 0 0 0
21-12-2019 15.1 (12:50) 6.3 (00:00) 10.7 20.28 (21:10) 11.67 (21:10) 18.4 2.4 0 9.8 6.2
20-12-2019 13.8 (14:40) 7.6 (00:00) 10.7 15.83 (15:10) 8.89 (15:00) 61.6 23.2 32.6 0 5.8

Gráficas

Temp. máximas Temp. mínimas Temp. medias Precipitaciones Rachas de viento máximas Velocidades máximas media en intervalos de 10 minutos

Datos horarios

Fecha y hora oficial Temperatura (ºC) Velocidad del viento (km/h) Dirección del viento Racha (km/h) Dirección de racha Precipitación (mm) Presión (hPa) Tendencia (hPa) Humedad (%)
2020-01-18 23:00:00 3.2 7 Este 14 Este 0 -- -- 73
2020-01-18 22:00:00 3.3 7 Este 13 Nordeste 0 -- -- 72
2020-01-18 21:00:00 3.4 7 Este 14 Este 0 -- -- 71
2020-01-18 20:00:00 4.3 6 Este 10 Este 0 -- -- 66
2020-01-18 19:00:00 5.6 4 Este 8 Nordeste 0 -- -- 58
2020-01-18 18:00:00 7.4 4 Sur 26 Sudoeste 0 -- -- 51
2020-01-18 17:00:00 9.6 15 Sudoeste 25 Sudoeste 0 -- -- 47
2020-01-18 16:00:00 10.3 16 Sudoeste 26 Sudoeste 0 -- -- 52
2020-01-18 15:00:00 9.6 15 Sudoeste 30 Sudoeste 0 -- -- 53
2020-01-18 14:00:00 9.8 19 Sudoeste 28 Oeste 0 -- -- 55
2020-01-18 13:00:00 8.7 13 Nordeste 22 Este 0 -- -- 51
2020-01-18 12:00:00 5.9 6 Este 10 Este 0 -- -- 65
2020-01-18 11:00:00 4.3 9 Sudoeste 18 Sudoeste 0 -- -- 66
2020-01-18 10:00:00 3.4 5 Este 13 Este 0 -- -- 64
2020-01-18 09:00:00 1.9 7 Este 12 Este 0 -- -- 69
2020-01-18 08:00:00 2 8 Este 14 Este 0 -- -- 67
2020-01-18 07:00:00 2.3 5 Este 16 Este 0 -- -- 63
2020-01-18 06:00:00 2.4 11 Este 21 Este 0 -- -- 61
2020-01-18 05:00:00 2.1 9 Este 16 Este 0 -- -- 63
2020-01-18 04:00:00 1.6 10 Este 18 Nordeste 0 -- -- 66
2020-01-18 03:00:00 0.9 8 Este 14 Este 0 -- -- 71
2020-01-18 02:00:00 1.6 5 Este 11 Este 0 -- -- 67
2020-01-18 01:00:00 1.4 8 Este 12 Nordeste 0 -- -- 71
2020-01-18 00:00:00 2.6 4 Este 14 Este 0 -- -- 64
2020-01-17 23:00:00 3.8 9 Este 14 Este 0 -- -- 61
2020-01-17 22:00:00 4.3 6 Este 12 Este 0 -- -- 63
2020-01-17 21:00:00 5.4 5 Oeste 12 Sur 0 -- -- 58
2020-01-17 20:00:00 6.5 5 Sur 12 Sur 0 -- -- 58
2020-01-17 19:00:00 7.8 6 Sudeste 13 Oeste 0 -- -- 55
2020-01-17 18:00:00 9.1 4 Este 18 Nordeste 0 -- -- 54
2020-01-17 17:00:00 10.6 13 Noroeste 47 Oeste 0 -- -- 50
2020-01-17 16:00:00 10.6 33 Oeste 53 Oeste 0 -- -- 66
2020-01-17 15:00:00 13.6 27 Oeste 48 Oeste 0 -- -- 45
2020-01-17 14:00:00 12.7 27 Oeste 37 Oeste 0 -- -- 58
2020-01-17 13:00:00 10.8 4 Sudeste 11 Sur 0 -- -- 67
2020-01-17 12:00:00 8.5 3 Sudeste 8 Sudeste 0 -- -- 76
2020-01-17 11:00:00 6.9 5 Sudoeste 11 Sudoeste 0 -- -- 83
2020-01-17 10:00:00 4.6 6 Sudoeste 9 Sudoeste 0 -- -- 94
2020-01-17 09:00:00 2.6 5 Nordeste 11 Este 0 -- -- 94
2020-01-17 08:00:00 2.6 5 Sudeste 12 Sudoeste 0 -- -- 94
2020-01-17 07:00:00 2.5 6 Este 12 Este 0 -- -- 93
2020-01-17 06:00:00 2.7 3 Sudeste 10 Este 0 -- -- 92
2020-01-17 05:00:00 2.4 5 Este 10 Este 0 -- -- 93
2020-01-17 04:00:00 1.8 7 Este 10 Nordeste 0 -- -- 92
2020-01-17 03:00:00 1.9 6 Este 10 Nordeste 0 -- -- 92
2020-01-17 02:00:00 2.2 8 Este 14 Este 0 -- -- 90
2020-01-17 01:00:00 2 8 Este 11 Este 0 -- -- 91
2020-01-17 00:00:00 2.8 7 Este 14 Este 0 -- -- 87
2020-01-16 23:00:00 3.4 6 Nordeste 14 Este 0 -- -- 86
2020-01-16 22:00:00 4 8 Este 12 Este 0 -- -- 84
2020-01-16 21:00:00 4.9 8 Este 12 Este 0 -- -- 82
2020-01-16 20:00:00 5.8 4 Este 8 Este 0 -- -- 81
2020-01-16 19:00:00 7.3 4 Este 9 Este 0 -- -- 76
2020-01-16 18:00:00 9.6 4 Sur 20 Sudoeste 0 -- -- 66
2020-01-16 17:00:00 12.4 9 Sudoeste 16 Sudoeste 0 -- -- 58
2020-01-16 16:00:00 12.1 5 Oeste 12 Oeste 0 -- -- 59
2020-01-16 15:00:00 10.9 6 Sur 11 Sudoeste 0 -- -- 59
2020-01-16 14:00:00 9.7 4 Sudoeste 14 Sudoeste 0 -- -- 58
2020-01-16 13:00:00 9 4 Oeste 13 Sudoeste 0 -- -- 58
2020-01-16 12:00:00 7.6 4 Oeste 9 Sudoeste 0 -- -- 61
2020-01-16 11:00:00 4.7 0 Calma 9 Este 0 -- -- 67
2020-01-16 10:00:00 1.7 6 Este 16 Este 0 -- -- 77
2020-01-16 09:00:00 0 9 Este 14 Este 0 -- -- 83
2020-01-16 08:00:00 -0.3 9 Este 12 Este 0 -- -- 83
2020-01-16 07:00:00 0.3 7 Este 14 Este 0 -- -- 80
2020-01-16 06:00:00 0.7 9 Este 15 Este 0 -- -- 78
2020-01-16 05:00:00 0.5 10 Este 13 Nordeste 0 -- -- 80
2020-01-16 04:00:00 1.5 10 Este 15 Este 0 -- -- 77
2020-01-16 03:00:00 1.8 11 Este 17 Este 0 -- -- 77
2020-01-16 02:00:00 1.1 9 Este 13 Este 0 -- -- 84
2020-01-16 01:00:00 1.1 7 Este 12 Este 0 -- -- 84
2020-01-16 00:00:00 1.4 9 Este 13 Este 0 -- -- 84
2020-01-15 23:00:00 2.4 6 Este 18 Este 0 -- -- 79
2020-01-15 22:00:00 2.5 10 Este 19 Este 0 -- -- 81
2020-01-15 21:00:00 2.7 9 Este 14 Este 0 -- -- 81
2020-01-15 20:00:00 3.5 8 Este 12 Este 0 -- -- 79
2020-01-15 19:00:00 4.5 5 Nordeste 9 Este 0 -- -- 77
2020-01-15 18:00:00 6.2 4 Este 6 Este 0 -- -- 70
2020-01-15 17:00:00 7.7 2 Nordeste 6 Nordeste 0 -- -- 65
2020-01-15 16:00:00 7.7 2 Este 8 Este 0 -- -- 64
2020-01-15 15:00:00 6.9 3 Este 12 Sudoeste 0 -- -- 66
2020-01-15 14:00:00 6.2 6 Sudoeste 12 Sudoeste 0 -- -- 66
2020-01-15 13:00:00 5.1 8 Sudoeste 10 Sudoeste 0 -- -- 74
2020-01-15 12:00:00 3.6 3 Sudoeste 10 Oeste 0 -- -- 77
2020-01-15 11:00:00 1.7 3 Este 8 Este 0 -- -- 77
2020-01-15 10:00:00 -0.1 5 Este 12 Este 0 -- -- 80
2020-01-15 09:00:00 -1.5 8 Este 12 Este 0 -- -- 84
2020-01-15 08:00:00 -1.7 7 Este 11 Este 0 -- -- 84
2020-01-15 07:00:00 -1.5 7 Este 12 Este 0 -- -- 85
2020-01-15 06:00:00 -1.5 8 Este 12 Este 0 -- -- 85
2020-01-15 05:00:00 -1 8 Este 13 Este 0 -- -- 84
2020-01-15 04:00:00 -1.1 8 Este 13 Este 0 -- -- 87
2020-01-15 03:00:00 -0.5 8 Este 12 Este 0 -- -- 83
2020-01-15 02:00:00 0 8 Este 14 Este 0 -- -- 82
2020-01-15 01:00:00 -0.3 9 Este 14 Este 0 -- -- 86
2020-01-15 00:00:00 0.4 8 Este 13 Nordeste 0 -- -- 82
2020-01-14 23:00:00 0.7 8 Este 12 Este 0 -- -- 82
2020-01-14 22:00:00 1.7 7 Este 13 Este 0 -- -- 79
2020-01-14 21:00:00 2 8 Este 11 Nordeste 0 -- -- 80
2020-01-14 20:00:00 3.5 6 Este 9 Este 0 -- -- 74
2020-01-14 19:00:00 4.8 5 Este 8 Este 0 -- -- 71
2020-01-14 18:00:00 7 4 Este 6 Este 0 -- -- 60
2020-01-14 17:00:00 10.3 4 Oeste 9 Sudeste 0 -- -- 49
2020-01-14 16:00:00 9.1 3 Este 8 Este 0 -- -- 53
2020-01-14 15:00:00 8.9 4 Sudoeste 11 Oeste 0 -- -- 53
2020-01-14 14:00:00 7.5 5 Sudoeste 11 Sudoeste 0 -- -- 60
2020-01-14 13:00:00 6.3 7 Sudoeste 13 Sudoeste 0 -- -- 64
2020-01-14 12:00:00 4.8 7 Sudoeste 12 Oeste 0 -- -- 68
2020-01-14 11:00:00 3.5 5 Sudoeste 8 Sudoeste 0 -- -- 74
2020-01-14 10:00:00 -0.4 5 Este 12 Este 0 -- -- 84
2020-01-14 09:00:00 -1.6 7 Este 12 Este 0 -- -- 86
2020-01-14 08:00:00 -1.5 8 Este 12 Este 0 -- -- 86
2020-01-14 07:00:00 -1.3 8 Este 16 Este 0 -- -- 85
2020-01-14 06:00:00 -1.2 8 Este 13 Este 0 -- -- 85
2020-01-14 05:00:00 -1.4 8 Este 12 Este 0 -- -- 86
2020-01-14 04:00:00 -1.2 6 Este 13 Este 0 -- -- 85
2020-01-14 03:00:00 -0.9 7 Este 14 Nordeste 0 -- -- 85
2020-01-14 02:00:00 -0.9 8 Este 13 Este 0 -- -- 86
2020-01-14 01:00:00 -0.6 7 Este 13 Nordeste 0 -- -- 86
2020-01-14 00:00:00 -0.3 8 Este 12 Este 0 -- -- 86
2020-01-13 23:00:00 0.3 8 Este 15 Este 0 -- -- 84
2020-01-13 22:00:00 0.8 7 Nordeste 11 Nordeste 0 -- -- 83
2020-01-13 21:00:00 1.6 6 Este 9 Este 0 -- -- 81
2020-01-13 20:00:00 2.8 5 Este 7 Este 0 -- -- 76
2020-01-13 19:00:00 4.3 3 Este 6 Este 0 -- -- 70
2020-01-13 18:00:00 5.1 0 Calma 6 Sudoeste 0 -- -- 68
2020-01-13 17:00:00 6.4 5 Sudoeste 10 Sudoeste 0 -- -- 62
2020-01-13 16:00:00 7.7 8 Sudoeste 12 Sudoeste 0 -- -- 58
2020-01-13 15:00:00 8 7 Sudoeste 13 Sudoeste 0 -- -- 54
2020-01-13 14:00:00 7.1 8 Sudoeste 12 Sudoeste 0 -- -- 59
2020-01-13 13:00:00 7.2 8 Sudoeste 10 Oeste 0 -- -- 57
2020-01-13 12:00:00 6.3 6 Sudoeste 9 Sudoeste 0 -- -- 55
2020-01-13 11:00:00 3.5 0 Calma 9 Este 0 -- -- 56
2020-01-13 10:00:00 0.4 6 Este 10 Este 0 -- -- 66
2020-01-13 09:00:00 -0.7 4 Nordeste 13 Nordeste 0 -- -- 66
2020-01-13 08:00:00 -1.1 8 Nordeste 12 Nordeste 0 -- -- 69
2020-01-13 07:00:00 -1 7 Este 14 Nordeste 0 -- -- 69
2020-01-13 06:00:00 -0.3 8 Este 16 Nordeste 0 -- -- 67
2020-01-13 05:00:00 -0.3 9 Este 15 Este 0 -- -- 68
2020-01-13 04:00:00 -0.4 8 Este 12 Este 0 -- -- 71
2020-01-13 03:00:00 0.1 8 Este 17 Nordeste 0 -- -- 70
2020-01-13 02:00:00 0.6 9 Este 15 Este 0 -- -- 68
2020-01-13 01:00:00 0.8 9 Este 15 Nordeste 0 -- -- 69
2020-01-13 00:00:00 0.4 9 Este 13 Este 0 -- -- 73
2020-01-12 23:00:00 1.1 9 Este 14 Este 0 -- -- 70
2020-01-12 22:00:00 1.2 7 Este 13 Este 0 -- -- 72
2020-01-12 21:00:00 2.2 8 Este 14 Sudeste 0 -- -- 68
2020-01-12 20:00:00 3 8 Este 13 Este 0 -- -- 68
2020-01-12 19:00:00 4.4 6 Este 10 Este 0 -- -- 62
2020-01-12 18:00:00 6.9 0 Calma 9 Sudoeste 0 -- -- 54
2020-01-12 17:00:00 9.9 5 Sudoeste 10 Sudoeste 0 -- -- 42
2020-01-12 16:00:00 10.3 6 Sudoeste 13 Oeste 0 -- -- 40
2020-01-12 15:00:00 10.2 10 Sudoeste 15 Sudoeste 0 -- -- 42
2020-01-12 14:00:00 9.6 8 Sudoeste 14 Sur 0 -- -- 41
2020-01-12 13:00:00 8.8 7 Sudoeste 10 Oeste 0 -- -- 53
2020-01-12 12:00:00 6.5 3 Sudoeste 5 Sudoeste 0 -- -- 58
2020-01-12 11:00:00 3.5 3 Este 10 Este 0 -- -- 52
2020-01-12 10:00:00 0.8 6 Nordeste 14 Nordeste 0 -- -- 60
2020-01-12 09:00:00 -1 8 Este 14 Este 0 -- -- 63
2020-01-12 08:00:00 -1.6 8 Este 12 Este 0 -- -- 68
2020-01-12 07:00:00 -1.3 9 Este 13 Este 0 -- -- 69
2020-01-12 06:00:00 -1.1 6 Este 12 Este 0 -- -- 69
2020-01-12 05:00:00 -1.2 7 Este 12 Nordeste 0 -- -- 74
2020-01-12 04:00:00 -1.2 9 Este 13 Este 0 -- -- 77
2020-01-12 03:00:00 -0.9 6 Este 14 Este 0 -- -- 79
2020-01-12 02:00:00 -0.9 8 Este 13 Este 0 -- -- 83
2020-01-12 01:00:00 -0.7 9 Este 14 Este 0 -- -- 85
2020-01-12 00:00:00 -0.6 6 Nordeste 12 Nordeste 0 -- -- 88
2020-01-11 23:00:00 -0.3 8 Este 13 Este 0 -- -- 90
2020-01-11 22:00:00 -0.2 8 Este 11 Este 0 -- -- 92
2020-01-11 21:00:00 0.4 8 Este 11 Este 0 -- -- 93
2020-01-11 20:00:00 1.1 6 Este 9 Este 0 -- -- 92
2020-01-11 19:00:00 1.7 6 Este 9 Este 0 -- -- 91
2020-01-11 18:00:00 3.3 4 Este 6 Este 0 -- -- 85
2020-01-11 17:00:00 5.5 5 Oeste 9 Sudoeste 0 -- -- 79
2020-01-11 16:00:00 5.1 4 Oeste 8 Noroeste 0 -- -- 93
2020-01-11 15:00:00 2.6 3 Norte 6 Oeste 0 -- -- 99
2020-01-11 14:00:00 1.4 3 Noroeste 10 Sudoeste 0 -- -- 98
2020-01-11 13:00:00 1.2 5 Oeste 9 Oeste 0 -- -- 98
2020-01-11 12:00:00 0.9 4 Noroeste 8 Sur 0 -- -- 98
2020-01-11 11:00:00 0.1 2 Sur 6 Sudeste 0 -- -- 98
2020-01-11 10:00:00 -0.3 2 Nordeste 8 Nordeste 0 -- -- 98
2020-01-11 09:00:00 -0.4 3 Nordeste 7 Sudeste 0 -- -- 98
2020-01-11 08:00:00 -0.5 3 Nordeste 9 Este 0 -- -- 97
2020-01-11 07:00:00 -0.2 4 Este 8 Nordeste 0 -- -- 97
2020-01-11 06:00:00 -0.2 4 Nordeste 8 Este 0 -- -- 97
2020-01-11 05:00:00 0.2 4 Este 8 Este 0 -- -- 96
2020-01-11 04:00:00 1.1 3 Nordeste 7 Norte 0 -- -- 96
2020-01-11 03:00:00 1.7 2 Norte 9 Sudeste 0 -- -- 96
2020-01-11 02:00:00 2.4 3 Nordeste 7 Nordeste 0 -- -- 96
2020-01-11 01:00:00 2.7 3 Oeste 6 Oeste 0 -- -- 96
2020-01-11 00:00:00 3 5 Oeste 10 Oeste 0 -- -- 95
2020-01-10 23:00:00 3.4 3 Sudoeste 10 Sudoeste 0 -- -- 95
2020-01-10 22:00:00 3.5 2 Noroeste 10 Noroeste 0 -- -- 95
2020-01-10 21:00:00 3.4 5 Sudoeste 9 Sudoeste 0 -- -- 94
2020-01-10 20:00:00 3.8 6 Sudoeste 9 Sudoeste 0 -- -- 90
2020-01-10 19:00:00 5 4 Sudoeste 6 Sudoeste 0 -- -- 86
2020-01-10 18:00:00 6.8 3 Sudeste 10 Este 0 -- -- 82
2020-01-10 17:00:00 9 5 Sudeste 14 Sudoeste 0 -- -- 75
2020-01-10 16:00:00 10.3 7 Sudoeste 14 Sudoeste 0 -- -- 71
2020-01-10 15:00:00 9.1 4 Este 9 Sur 0 -- -- 75
2020-01-10 14:00:00 9 7 Sudoeste 14 Sudoeste 0 -- -- 74
2020-01-10 13:00:00 8.6 7 Sudoeste 27 Sudoeste 0 -- -- 76
2020-01-10 12:00:00 6.9 10 Sudoeste 18 Sudoeste 0 -- -- 88
2020-01-10 11:00:00 5.6 7 Sudoeste 10 Sudoeste 0 -- -- 92
2020-01-10 10:00:00 5.1 3 Sudeste 8 Este 0 -- -- 92
2020-01-10 09:00:00 4.9 3 Este 15 Nordeste 0 -- -- 91
2020-01-10 08:00:00 5.3 6 Nordeste 26 Este 0.4 -- -- 87
2020-01-10 07:00:00 5.5 14 Nordeste 27 Nordeste 1.4 -- -- 86
2020-01-10 06:00:00 6.3 9 Nordeste 22 Nordeste 0.2 -- -- 81
2020-01-10 05:00:00 5.8 11 Nordeste 24 Nordeste 0 -- -- 80
2020-01-10 04:00:00 4.2 5 Este 8 Este 0 -- -- 89
2020-01-10 03:00:00 4.2 4 Este 10 Nordeste 0 -- -- 88
2020-01-10 02:00:00 3.6 6 Este 9 Este 0 -- -- 88
2020-01-10 01:00:00 3.3 4 Este 8 Este 0 -- -- 89
2020-01-10 00:00:00 3.7 3 Este 8 Este 0 -- -- 89
2020-01-09 23:00:00 3.9 4 Este 7 Este 0 -- -- 90
2020-01-09 22:00:00 4.1 3 Este 9 Este 0 -- -- 90
2020-01-09 21:00:00 4.7 5 Este 8 Este 0 -- -- 89
2020-01-09 20:00:00 5.9 4 Este 9 Este 0 -- -- 86
2020-01-09 19:00:00 7.4 0 Calma 9 Sudeste 0 -- -- 83
2020-01-09 18:00:00 8.6 4 Sudeste 17 Sur 0 -- -- 80
2020-01-09 17:00:00 11.5 9 Sudoeste 15 Sur 0 -- -- 58
2020-01-09 16:00:00 12 5 Sudoeste 13 Sudoeste 0 -- -- 63
2020-01-09 15:00:00 11.5 7 Sudoeste 13 Oeste 0 -- -- 66
2020-01-09 14:00:00 10.4 6 Oeste 14 Oeste 0 -- -- 70
2020-01-09 13:00:00 9.8 6 Sudoeste 13 Sudoeste 0 -- -- 69
2020-01-09 12:00:00 8.7 5 Sudoeste 10 Sudoeste 0 -- -- 70
2020-01-09 11:00:00 6 2 Este 9 Este 0 -- -- 76
2020-01-09 10:00:00 3.5 6 Este 15 Este 0 -- -- 85
2020-01-09 09:00:00 2.2 6 Este 14 Este 0 -- -- 88
2020-01-09 08:00:00 1.7 8 Este 13 Este 0 -- -- 90
2020-01-09 07:00:00 1.7 8 Este 12 Este 0 -- -- 88
2020-01-09 06:00:00 2.2 8 Este 13 Este 0 -- -- 88
2020-01-09 05:00:00 2.3 8 Este 12 Este 0 -- -- 87
2020-01-09 04:00:00 3.2 8 Nordeste 14 Este 0 -- -- 84
2020-01-09 03:00:00 3.3 7 Este 13 Este 0 -- -- 83
2020-01-09 02:00:00 3 8 Este 15 Este 0 -- -- 84
2020-01-09 01:00:00 3.7 8 Este 12 Este 0 -- -- 82
2020-01-09 00:00:00 4.9 5 Este 15 Este 0 -- -- 78
2020-01-08 23:00:00 4.4 8 Este 12 Este 0 -- -- 81
2020-01-08 22:00:00 5.2 7 Este 10 Este 0 -- -- 78
2020-01-08 21:00:00 5.6 6 Este 10 Este 0 -- -- 77
2020-01-08 20:00:00 6.9 6 Este 10 Este 0 -- -- 73
2020-01-08 19:00:00 8.3 5 Este 7 Este 0 -- -- 67
2020-01-08 18:00:00 10 4 Este 8 Sur 0 -- -- 60
2020-01-08 17:00:00 12.4 4 Sur 11 Sudoeste 0 -- -- 53
2020-01-08 16:00:00 13.8 6 Sudoeste 12 Sudoeste 0 -- -- 48
2020-01-08 15:00:00 13.5 6 Sudoeste 13 Sudoeste 0 -- -- 50
2020-01-08 14:00:00 12.6 5 Oeste 14 Sudoeste 0 -- -- 51
2020-01-08 13:00:00 12 6 Sudoeste 12 Sudoeste 0 -- -- 49
2020-01-08 12:00:00 9.6 5 Este 10 Sudoeste 0 -- -- 61
2020-01-08 11:00:00 8.2 3 Sudoeste 10 Este 0 -- -- 60
2020-01-08 10:00:00 4.3 5 Este 13 Este 0 -- -- 69
2020-01-08 09:00:00 2.7 10 Este 13 Este 0 -- -- 73
2020-01-08 08:00:00 3.8 8 Este 15 Este 0 -- -- 66
2020-01-08 07:00:00 3.9 10 Este 15 Este 0 -- -- 67
2020-01-08 06:00:00 4.2 9 Este 20 Este 0 -- -- 67
2020-01-08 05:00:00 5 8 Este 20 Nordeste 0 -- -- 63
2020-01-08 04:00:00 5.1 10 Este 19 Este 0 -- -- 63
2020-01-08 03:00:00 4.5 11 Este 18 Este 0 -- -- 68
2020-01-08 02:00:00 4 10 Este 16 Este 0 -- -- 70
2020-01-08 01:00:00 3.5 11 Este 15 Este 0 -- -- 77
2020-01-08 00:00:00 4.2 10 Este 12 Este 0 -- -- 74
2020-01-07 23:00:00 5.4 6 Este 12 Este 0 -- -- 69
2020-01-07 22:00:00 6.2 5 Nordeste 14 Este 0 -- -- 66
2020-01-07 21:00:00 6.7 9 Este 14 Este 0 -- -- 65
2020-01-07 20:00:00 6.5 8 Este 14 Este 0 -- -- 69
2020-01-07 19:00:00 7.2 7 Este 10 Nordeste 0 -- -- 69
2020-01-07 18:00:00 8.9 5 Este 8 Este 0 -- -- 61
2020-01-07 17:00:00 12 5 Oeste 8 Sudoeste 0 -- -- 52
2020-01-07 16:00:00 11.8 5 Sudoeste 10 Sudoeste 0 -- -- 51
2020-01-07 15:00:00 11.6 5 Oeste 14 Sudoeste 0 -- -- 56
2020-01-07 14:00:00 10.8 4 Oeste 11 Sudoeste 0 -- -- 59
2020-01-07 13:00:00 9.6 6 Oeste 11 Sudoeste 0 -- -- 61
2020-01-07 12:00:00 7.4 4 Oeste 8 Oeste 0 -- -- 65
2020-01-07 11:00:00 4.9 5 Este 9 Este 0 -- -- 68
2020-01-07 10:00:00 2.4 7 Este 17 Este 0 -- -- 75
2020-01-07 09:00:00 1.1 6 Este 14 Nordeste 0 -- -- 80
2020-01-07 08:00:00 0.7 8 Este 14 Este 0 -- -- 82
2020-01-07 07:00:00 0.7 9 Este 15 Este 0 -- -- 83
2020-01-07 06:00:00 1.1 8 Este 14 Nordeste 0 -- -- 81
2020-01-07 05:00:00 0.6 9 Este 13 Este 0 -- -- 85
2020-01-07 04:00:00 0.3 9 Este 13 Este 0 -- -- 90
2020-01-07 03:00:00 0.8 7 Este 15 Este 0 -- -- 87
2020-01-07 02:00:00 1.3 8 Este 13 Este 0 -- -- 84
2020-01-07 01:00:00 1.8 7 Este 12 Este 0 -- -- 82
2020-01-07 00:00:00 2.9 8 Este 15 Este 0 -- -- 79
2020-01-06 23:00:00 3.3 8 Este 14 Este 0 -- -- 78
2020-01-06 22:00:00 3.5 8 Este 14 Este 0 -- -- 78
2020-01-06 21:00:00 3.8 8 Este 12 Este 0 -- -- 79
2020-01-06 20:00:00 4.8 7 Este 10 Este 0 -- -- 77
2020-01-06 19:00:00 5.7 6 Este 8 Este 0 -- -- 76
2020-01-06 18:00:00 8 0 Calma 7 Sudoeste 0 -- -- 66
2020-01-06 17:00:00 10.5 6 Sudoeste 12 Oeste 0 -- -- 57
2020-01-06 16:00:00 11.2 7 Sudoeste 13 Sudoeste 0 -- -- 56
2020-01-06 15:00:00 11.1 9 Sudoeste 17 Sudoeste 0 -- -- 55
2020-01-06 14:00:00 10.3 8 Sudoeste 14 Oeste 0 -- -- 54
2020-01-06 13:00:00 9.7 8 Sudoeste 12 Oeste 0 -- -- 54
2020-01-06 12:00:00 8.9 5 Sudoeste 8 Sudoeste 0 -- -- 58
2020-01-06 11:00:00 5.7 4 Este 8 Este 0 -- -- 64
2020-01-06 10:00:00 3.3 7 Este 12 Nordeste 0 -- -- 70